Time;durP1;ratioP1;P1;durP2;ratioP2;P2;SDS_P1;SDS_P2;PMS_P1;PMS_P2;Temp;Humidity;BMP_temperature;BMP_pressure;BME280_temperature;BME280_humidity;BME280_pressure;Samples;Min_cycle;Max_cycle;Signal;HPM_P1;HPM_P2
2021/12/06 00:07:39;;;;;;;0.23;0.23;;;5.10;95.00;3.80;101020.00;;;;30925422;28;20226;-76
2021/12/06 00:22:43;;;;;;;0.20;0.20;;;5.10;94.90;3.80;101055.00;;;;30907440;28;20133;-76
2021/12/06 00:37:55;;;;;;;0.43;0.43;;;5.10;95.40;3.80;101075.00;;;;31026651;28;20049;-77
2021/12/06 00:52:58;;;;;;;0.40;0.40;;;5.10;95.40;3.60;101080.00;;;;31095830;28;20433;-76
2021/12/06 01:07:59;;;;;;;0.35;0.35;;;4.90;95.30;3.60;101103.00;;;;31122166;28;20042;-76
2021/12/06 01:23:11;;;;;;;0.93;0.93;;;4.90;95.30;3.60;101119.00;;;;31056516;28;20054;-77
2021/12/06 01:53:34;;;;;;;0.35;0.35;;;4.80;96.00;3.60;101141.00;;;;31059729;28;20966;-77
2021/12/06 02:08:35;;;;;;;0.68;0.65;;;5.30;95.50;3.70;101157.00;;;;31122767;28;20060;-77
2021/12/06 02:23:38;;;;;;;0.28;0.28;;;5.00;95.40;3.60;101167.00;;;;31145911;28;20046;-77
2021/12/06 02:38:46;;;;;;;0.20;0.20;;;4.90;95.60;3.60;101166.00;;;;31140250;28;20405;-77
2021/12/06 02:53:49;;;;;;;0.20;0.20;;;5.00;95.70;3.60;101182.00;;;;31168406;28;20042;-77
2021/12/06 03:09:06;;;;;;;0.50;0.50;;;4.90;95.60;3.60;101186.00;;;;31157231;28;20623;-78
2021/12/06 03:24:08;;;;;;;0.33;0.33;;;4.90;95.90;3.60;101204.00;;;;31089236;28;21151;-77
2021/12/06 03:39:23;;;;;;;0.22;0.22;;;4.90;96.20;3.70;101220.00;;;;31098898;28;20130;-77
2021/12/06 03:54:28;;;;;;;0.30;0.30;;;5.00;95.70;3.80;101231.00;;;;31153586;28;20111;-76
2021/12/06 04:09:30;;;;;;;0.30;0.30;;;5.10;95.60;3.80;101230.00;;;;31116273;28;20060;-77
2021/12/06 04:24:32;;;;;;;2.10;1.95;;;5.40;95.80;3.80;101217.00;;;;31099431;28;20063;-77
2021/12/06 04:39:35;;;;;;;0.20;0.20;;;5.20;95.50;3.90;101240.00;;;;31080069;28;20052;-76
2021/12/06 04:54:42;;;;;;;0.40;0.40;;;5.20;95.90;3.90;101243.00;;;;31091083;28;20107;-77
2021/12/06 05:10:11;;;;;;;0.30;0.30;;;5.20;95.80;3.90;101257.00;;;;31050009;28;20140;-77
2021/12/06 05:25:14;;;;;;;0.20;0.20;;;5.10;95.70;3.60;101258.00;;;;30889401;28;20703;-76
2021/12/06 05:40:23;;;;;;;0.30;0.30;;;4.90;95.90;3.40;101268.00;;;;30931337;28;20046;-76
2021/12/06 05:55:28;;;;;;;0.30;0.30;;;4.70;95.80;3.30;101272.00;;;;30930584;28;20046;-76
2021/12/06 06:10:32;;;;;;;0.30;0.30;;;4.50;95.70;3.10;101259.00;;;;30973535;28;20560;-76
2021/12/06 06:25:33;;;;;;;0.20;0.20;;;4.40;95.80;3.00;101285.00;;;;31097876;28;20706;-76
2021/12/06 06:40:35;;;;;;;0.30;0.30;;;4.40;96.20;3.10;101294.00;;;;31051371;28;21030;-78
2021/12/06 06:55:36;;;;;;;0.80;0.80;;;4.40;96.70;3.10;101303.00;;;;31049788;28;20061;-77
2021/12/06 07:10:37;;;;;;;0.20;0.20;;;4.50;96.00;3.10;101312.00;;;;31051121;28;20057;-77
2021/12/06 07:25:44;;;;;;;0.40;0.40;;;4.50;96.10;3.10;101324.00;;;;31044941;28;20598;-77
2021/12/06 07:40:50;;;;;;;0.40;0.40;;;4.40;96.00;3.10;101335.00;;;;31065180;28;20129;-77
2021/12/06 07:55:51;;;;;;;0.40;0.40;;;4.40;95.90;3.00;101350.00;;;;31060711;28;20128;-77
2021/12/06 08:10:58;;;;;;;0.32;0.32;;;4.10;96.60;3.00;101341.00;;;;31025106;28;20045;-75
2021/12/06 08:26:57;;;;;;;0.40;0.40;;;4.40;96.00;3.00;101326.00;;;;31056335;28;20052;-75
2021/12/06 08:41:59;;;;;;;0.50;0.50;;;4.30;95.80;2.80;101315.00;;;;31143633;28;20053;-75
2021/12/06 08:57:04;;;;;;;1.05;1.05;;;4.10;95.90;2.70;101341.00;;;;31162989;28;20034;-75
2021/12/06 09:12:05;;;;;;;1.00;1.00;;;3.90;95.70;2.40;101365.00;;;;31162426;28;20056;-75
2021/12/06 09:27:08;;;;;;;0.40;0.40;;;3.80;96.50;2.40;101366.00;;;;31167702;28;20079;-74
2021/12/06 09:42:11;;;;;;;0.30;0.30;;;3.80;96.10;2.50;101377.00;;;;31182471;28;20057;-74
2021/12/06 09:57:19;;;;;;;0.47;0.47;;;3.90;95.80;2.60;101383.00;;;;31200556;28;20057;-76
2021/12/06 10:12:22;;;;;;;0.20;0.20;;;4.00;96.10;2.70;101357.00;;;;31189672;28;20497;-74
2021/12/06 10:27:28;;;;;;;0.20;0.20;;;4.10;96.00;2.80;101341.00;;;;31179880;28;20045;-74
2021/12/06 10:42:39;;;;;;;;;;;4.70;96.40;2.90;101305.00;;;;31178055;28;20050;-74
2021/12/06 11:03:32;;;;;;;0.30;0.30;;;4.20;95.90;2.90;101288.00;;;;31637009;27;20426;-75
2021/12/06 11:18:44;;;;;;;0.35;0.35;;;4.20;95.80;2.80;101261.00;;;;31468750;28;20048;-74
2021/12/06 11:34:01;;;;;;;0.68;0.68;;;4.20;96.30;2.90;101241.00;;;;31483123;28;20047;-75
2021/12/06 11:49:02;;;;;;;0.30;0.30;;;4.30;95.90;2.90;101236.00;;;;31548502;28;20044;-76
2021/12/06 12:04:19;;;;;;;0.20;0.20;;;4.20;96.40;2.90;101217.00;;;;31445925;28;20039;-75
2021/12/06 12:19:21;;;;;;;0.40;0.40;;;4.30;96.20;2.90;101188.00;;;;31384609;28;20036;-75
2021/12/06 12:34:27;;;;;;;0.22;0.22;;;4.30;96.50;3.00;101165.00;;;;31420148;28;20044;-75
2021/12/06 12:49:30;;;;;;;0.30;0.30;;;4.20;96.00;3.00;101142.00;;;;31408354;28;20052;-75
2021/12/06 13:04:59;;;;;;;0.22;0.22;;;4.20;96.20;2.90;101136.00;;;;31427533;28;20058;-75
2021/12/06 13:20:21;;;;;;;5.68;2.78;;;4.10;95.40;2.70;101107.00;;;;31403773;28;20040;-75
2021/12/06 13:35:29;;;;;;;0.30;0.30;;;4.10;95.60;2.40;101078.00;;;;31409904;28;20601;-75
2021/12/06 13:50:30;;;;;;;0.50;0.50;;;3.70;95.60;2.40;101063.00;;;;31366591;28;20053;-75
2021/12/06 14:05:33;;;;;;;0.30;0.30;;;3.80;95.60;2.50;101024.00;;;;31417832;28;20048;-75
2021/12/06 14:20:34;;;;;;;0.30;0.30;;;3.90;95.50;2.60;101004.00;;;;31420076;28;20298;-75
2021/12/06 14:35:38;;;;;;;0.30;0.30;;;4.00;95.40;2.70;100971.00;;;;31386489;28;20084;-75
2021/12/06 15:05:54;;;;;;;0.30;0.30;;;3.50;95.30;2.70;100890.00;;;;31437826;28;20044;-75
2021/12/06 15:21:00;;;;;;;0.43;0.43;;;4.00;95.70;2.70;100874.00;;;;31482843;28;20407;-74
2021/12/06 15:36:06;;;;;;;;;;;4.00;95.70;2.70;100868.00;;;;31480281;28;20314;-74
2021/12/06 15:58:20;;;;;;;0.30;0.30;;;4.00;95.80;2.70;100835.00;;;;31294563;27;20524;-75
2021/12/06 16:13:29;;;;;;;0.30;0.30;;;4.60;96.30;2.70;100801.00;;;;31168281;28;20593;-76
2021/12/06 16:29:00;;;;;;;0.20;0.20;;;4.00;95.80;2.70;100812.00;;;;31090765;28;20093;-76
2021/12/06 16:44:10;;;;;;;0.20;0.20;;;4.10;95.70;2.80;100802.00;;;;31051922;28;20149;-76
2021/12/06 16:59:16;;;;;;;0.30;0.30;;;4.20;95.60;2.90;100780.00;;;;31042179;28;20051;-77
2021/12/06 17:14:25;;;;;;;0.30;0.30;;;4.30;95.20;2.90;100761.00;;;;30971277;28;20538;-76
2021/12/06 17:29:30;;;;;;;0.30;0.30;;;4.20;95.30;3.00;100738.00;;;;30971451;28;20062;-77
2021/12/06 17:44:33;;;;;;;0.23;0.23;;;4.50;94.00;3.00;100721.00;;;;30981636;28;20083;-77
2021/12/06 17:59:40;;;;;;;0.20;0.20;;;4.30;93.80;3.10;100713.00;;;;30986341;28;20054;-76
2021/12/06 18:14:43;;;;;;;0.30;0.30;;;4.40;93.50;3.10;100685.00;;;;31019104;28;20064;-76
2021/12/06 18:29:46;;;;;;;0.20;0.20;;;4.40;93.10;3.20;100656.00;;;;30941677;28;20042;-76
2021/12/06 18:44:48;;;;;;;0.30;0.30;;;4.50;93.10;3.20;100614.00;;;;30984389;28;20172;-75
2021/12/06 18:59:50;;;;;;;0.20;0.20;;;4.50;92.90;3.20;100605.00;;;;30971479;28;20081;-76
2021/12/06 19:14:52;;;;;;;0.40;0.40;;;4.50;92.90;3.30;100578.00;;;;31001329;28;20044;-76
2021/12/06 19:29:53;;;;;;;0.22;0.22;;;4.50;93.30;3.20;100538.00;;;;30971671;28;20054;-75
2021/12/06 19:44:54;;;;;;;0.30;0.30;;;4.40;92.80;3.00;100512.00;;;;30984122;28;20058;-75
2021/12/06 19:59:56;;;;;;;0.30;0.30;;;4.30;93.80;3.00;100483.00;;;;30962390;28;20076;-76
2021/12/06 20:14:57;;;;;;;0.35;0.35;;;4.30;93.70;2.90;100459.00;;;;30970100;28;20045;-74
2021/12/06 20:29:58;;;;;;;0.30;0.30;;;4.20;94.40;2.80;100431.00;;;;30993802;28;20069;-74
2021/12/06 20:45:03;;;;;;;0.30;0.30;;;;;2.70;100414.00;;;;30999460;28;20100;-73
2021/12/06 21:08:15;;;;;;;0.30;0.30;;;3.90;94.30;2.30;100372.00;;;;31120605;28;20440;-73
2021/12/06 21:23:16;;;;;;;1.05;0.98;;;3.50;94.50;2.10;100352.00;;;;30964073;28;20057;-73
2021/12/06 21:38:17;;;;;;;0.32;0.32;;;3.30;94.70;1.90;100318.00;;;;30965453;28;20093;-73
2021/12/06 21:53:19;;;;;;;0.20;0.20;;;4.00;95.30;1.50;100310.00;;;;31101938;28;20050;-71
2021/12/06 22:08:20;;;;;;;0.20;0.20;;;2.90;94.60;1.30;100296.00;;;;31047917;28;20084;-71
2021/12/06 22:23:22;;;;;;;0.20;0.20;;;2.70;94.70;1.20;100282.00;;;;30996878;28;20092;-72
2021/12/06 22:38:23;;;;;;;0.20;0.20;;;2.60;94.80;1.10;100277.00;;;;30992227;28;20070;-71
2021/12/06 22:53:24;;;;;;;0.20;0.20;;;2.50;94.90;1.00;100286.00;;;;31013043;28;20462;-71
2021/12/06 23:08:30;;;;;;;0.28;0.28;;;2.50;94.90;1.00;100314.00;;;;30992964;28;20510;-71
2021/12/06 23:23:32;;;;;;;0.22;0.22;;;2.40;94.90;0.90;100317.00;;;;30997475;28;20568;-71
2021/12/06 23:39:02;;;;;;;0.40;0.40;;;2.40;95.30;0.80;100334.00;;;;30996067;28;20057;-71
2021/12/06 23:54:00;;;;;;;0.28;0.28;;;2.30;95.60;0.90;100331.00;;;;30993339;28;20124;-70
